sensor_id;sensor_type;location;lat;lon;timestamp;temperature;humidity
2463;DHT22;1243;54.298;10.172;2023-06-05T00:00:00;11.30;1.00
2463;DHT22;1243;54.298;10.172;2023-06-05T00:02:26;11.30;1.00
2463;DHT22;1243;54.298;10.172;2023-06-05T00:04:53;11.30;1.00
2463;DHT22;1243;54.298;10.172;2023-06-05T00:07:19;11.20;1.00
2463;DHT22;1243;54.298;10.172;2023-06-05T00:09:44;11.20;1.00
2463;DHT22;1243;54.298;10.172;2023-06-05T00:12:10;11.10;1.00
2463;DHT22;1243;54.298;10.172;2023-06-05T00:14:36;11.10;1.00
2463;DHT22;1243;54.298;10.172;2023-06-05T00:17:02;11.10;1.00
2463;DHT22;1243;54.298;10.172;2023-06-05T00:19:28;11.10;1.00
2463;DHT22;1243;54.298;10.172;2023-06-05T00:21:55;11.10;1.00
2463;DHT22;1243;54.298;10.172;2023-06-05T00:24:21;11.00;1.00
2463;DHT22;1243;54.298;10.172;2023-06-05T00:26:46;11.00;1.00
2463;DHT22;1243;54.298;10.172;2023-06-05T00:29:12;11.00;1.00
2463;DHT22;1243;54.298;10.172;2023-06-05T00:31:38;11.00;1.00
2463;DHT22;1243;54.298;10.172;2023-06-05T00:34:04;11.00;1.00
2463;DHT22;1243;54.298;10.172;2023-06-05T00:36:29;10.90;1.00
2463;DHT22;1243;54.298;10.172;2023-06-05T00:38:55;10.80;1.00
2463;DHT22;1243;54.298;10.172;2023-06-05T00:41:21;10.80;1.00
2463;DHT22;1243;54.298;10.172;2023-06-05T00:43:46;10.70;1.00
2463;DHT22;1243;54.298;10.172;2023-06-05T00:46:12;10.70;1.00
2463;DHT22;1243;54.298;10.172;2023-06-05T00:48:40;10.60;1.00
2463;DHT22;1243;54.298;10.172;2023-06-05T00:51:06;10.60;1.00
2463;DHT22;1243;54.298;10.172;2023-06-05T00:53:34;10.60;1.00
2463;DHT22;1243;54.298;10.172;2023-06-05T00:56:02;10.60;1.00
2463;DHT22;1243;54.298;10.172;2023-06-05T00:58:29;10.50;1.00
2463;DHT22;1243;54.298;10.172;2023-06-05T01:00:57;10.50;1.00
2463;DHT22;1243;54.298;10.172;2023-06-05T01:03:23;10.50;1.00
2463;DHT22;1243;54.298;10.172;2023-06-05T01:05:49;10.50;1.00
2463;DHT22;1243;54.298;10.172;2023-06-05T01:08:15;10.50;1.00
2463;DHT22;1243;54.298;10.172;2023-06-05T01:10:43;10.40;1.00
2463;DHT22;1243;54.298;10.172;2023-06-05T01:13:23;10.40;1.00
2463;DHT22;1243;54.298;10.172;2023-06-05T01:15:51;10.30;1.00
2463;DHT22;1243;54.298;10.172;2023-06-05T01:18:21;10.30;1.00
2463;DHT22;1243;54.298;10.172;2023-06-05T01:20:47;10.30;1.00
2463;DHT22;1243;54.298;10.172;2023-06-05T01:23:13;10.20;1.00
2463;DHT22;1243;54.298;10.172;2023-06-05T01:25:39;10.30;1.00
2463;DHT22;1243;54.298;10.172;2023-06-05T01:28:18;10.20;1.00
2463;DHT22;1243;54.298;10.172;2023-06-05T01:30:57;10.20;1.00
2463;DHT22;1243;54.298;10.172;2023-06-05T01:33:33;10.20;1.00
2463;DHT22;1243;54.298;10.172;2023-06-05T01:36:11;10.10;1.00
2463;DHT22;1243;54.298;10.172;2023-06-05T01:38:39;10.10;1.00
2463;DHT22;1243;54.298;10.172;2023-06-05T01:41:06;10.10;1.00
2463;DHT22;1243;54.298;10.172;2023-06-05T01:43:33;10.10;1.00
2463;DHT22;1243;54.298;10.172;2023-06-05T01:45:59;10.10;1.00
2463;DHT22;1243;54.298;10.172;2023-06-05T01:48:26;10.00;1.00
2463;DHT22;1243;54.298;10.172;2023-06-05T01:50:59;10.00;1.00
2463;DHT22;1243;54.298;10.172;2023-06-05T01:53:26;10.00;1.00
2463;DHT22;1243;54.298;10.172;2023-06-05T01:55:53;10.00;1.00
2463;DHT22;1243;54.298;10.172;2023-06-05T01:58:23;9.90;1.00
2463;DHT22;1243;54.298;10.172;2023-06-05T02:00:48;9.90;1.00
2463;DHT22;1243;54.298;10.172;2023-06-05T02:03:14;9.90;1.00
2463;DHT22;1243;54.298;10.172;2023-06-05T02:05:44;9.90;1.00
2463;DHT22;1243;54.298;10.172;2023-06-05T02:08:10;9.80;1.00
2463;DHT22;1243;54.298;10.172;2023-06-05T02:10:37;9.70;1.00
2463;DHT22;1243;54.298;10.172;2023-06-05T02:13:06;9.70;1.00
2463;DHT22;1243;54.298;10.172;2023-06-05T02:15:32;9.70;1.00
2463;DHT22;1243;54.298;10.172;2023-06-05T02:17:59;9.70;1.00
2463;DHT22;1243;54.298;10.172;2023-06-05T02:20:26;9.70;1.00
2463;DHT22;1243;54.298;10.172;2023-06-05T02:22:53;9.70;1.00
2463;DHT22;1243;54.298;10.172;2023-06-05T02:25:23;9.70;1.00
2463;DHT22;1243;54.298;10.172;2023-06-05T02:27:52;9.70;1.00
2463;DHT22;1243;54.298;10.172;2023-06-05T02:30:18;9.60;1.00
2463;DHT22;1243;54.298;10.172;2023-06-05T02:32:44;9.50;1.00
2463;DHT22;1243;54.298;10.172;2023-06-05T02:35:11;9.50;1.00
2463;DHT22;1243;54.298;10.172;2023-06-05T02:37:37;9.50;1.00
2463;DHT22;1243;54.298;10.172;2023-06-05T02:40:09;9.40;1.00
2463;DHT22;1243;54.298;10.172;2023-06-05T02:42:35;9.40;1.00
2463;DHT22;1243;54.298;10.172;2023-06-05T02:45:01;9.30;1.00
2463;DHT22;1243;54.298;10.172;2023-06-05T02:47:27;9.30;1.00
2463;DHT22;1243;54.298;10.172;2023-06-05T02:49:52;9.30;1.00
2463;DHT22;1243;54.298;10.172;2023-06-05T02:52:18;9.40;1.00
2463;DHT22;1243;54.298;10.172;2023-06-05T02:54:44;9.40;1.00
2463;DHT22;1243;54.298;10.172;2023-06-05T02:57:09;9.30;1.00
2463;DHT22;1243;54.298;10.172;2023-06-05T02:59:36;9.30;1.00
2463;DHT22;1243;54.298;10.172;2023-06-05T03:02:05;9.30;1.00
2463;DHT22;1243;54.298;10.172;2023-06-05T03:04:31;9.30;1.00
2463;DHT22;1243;54.298;10.172;2023-06-05T03:07:00;9.30;1.00
2463;DHT22;1243;54.298;10.172;2023-06-05T03:09:30;9.30;1.00
2463;DHT22;1243;54.298;10.172;2023-06-05T03:11:57;9.20;1.00
2463;DHT22;1243;54.298;10.172;2023-06-05T03:14:23;9.10;1.00
2463;DHT22;1243;54.298;10.172;2023-06-05T03:16:48;9.00;1.00
2463;DHT22;1243;54.298;10.172;2023-06-05T03:19:14;9.00;1.00
2463;DHT22;1243;54.298;10.172;2023-06-05T03:21:40;9.00;1.00
2463;DHT22;1243;54.298;10.172;2023-06-05T03:24:09;9.00;1.00
2463;DHT22;1243;54.298;10.172;2023-06-05T03:26:36;9.00;1.00
2463;DHT22;1243;54.298;10.172;2023-06-05T03:29:02;9.00;1.00
2463;DHT22;1243;54.298;10.172;2023-06-05T03:31:27;9.00;1.00
2463;DHT22;1243;54.298;10.172;2023-06-05T03:33:53;9.00;1.00
2463;DHT22;1243;54.298;10.172;2023-06-05T03:36:19;9.10;1.00
2463;DHT22;1243;54.298;10.172;2023-06-05T03:38:45;9.10;1.00
2463;DHT22;1243;54.298;10.172;2023-06-05T03:41:18;9.00;1.00
2463;DHT22;1243;54.298;10.172;2023-06-05T03:43:43;9.00;1.00
2463;DHT22;1243;54.298;10.172;2023-06-05T03:46:10;9.00;1.00
2463;DHT22;1243;54.298;10.172;2023-06-05T03:48:36;9.00;1.00
2463;DHT22;1243;54.298;10.172;2023-06-05T03:51:01;9.00;1.00
2463;DHT22;1243;54.298;10.172;2023-06-05T03:53:27;9.10;1.00
2463;DHT22;1243;54.298;10.172;2023-06-05T03:55:55;9.20;1.00
2463;DHT22;1243;54.298;10.172;2023-06-05T03:58:22;9.20;1.00
2463;DHT22;1243;54.298;10.172;2023-06-05T04:00:51;9.30;1.00
2463;DHT22;1243;54.298;10.172;2023-06-05T04:03:19;9.30;1.00
2463;DHT22;1243;54.298;10.172;2023-06-05T04:05:46;9.40;1.00
2463;DHT22;1243;54.298;10.172;2023-06-05T04:08:11;9.40;1.00
2463;DHT22;1243;54.298;10.172;2023-06-05T04:10:39;9.50;1.00
2463;DHT22;1243;54.298;10.172;2023-06-05T04:13:05;9.50;1.00
2463;DHT22;1243;54.298;10.172;2023-06-05T04:15:31;9.50;1.00
2463;DHT22;1243;54.298;10.172;2023-06-05T04:17:59;9.60;1.00
2463;DHT22;1243;54.298;10.172;2023-06-05T04:20:24;9.60;1.00
2463;DHT22;1243;54.298;10.172;2023-06-05T04:22:50;9.60;1.00
2463;DHT22;1243;54.298;10.172;2023-06-05T04:25:16;9.70;1.00
2463;DHT22;1243;54.298;10.172;2023-06-05T04:27:44;9.70;1.00
2463;DHT22;1243;54.298;10.172;2023-06-05T04:30:12;9.80;1.00
2463;DHT22;1243;54.298;10.172;2023-06-05T04:32:39;9.90;1.00
2463;DHT22;1243;54.298;10.172;2023-06-05T04:35:05;9.90;1.00
2463;DHT22;1243;54.298;10.172;2023-06-05T04:37:32;10.00;1.00
2463;DHT22;1243;54.298;10.172;2023-06-05T04:39:58;10.00;1.00
2463;DHT22;1243;54.298;10.172;2023-06-05T04:42:25;10.10;1.00
2463;DHT22;1243;54.298;10.172;2023-06-05T04:44:57;10.20;1.00
2463;DHT22;1243;54.298;10.172;2023-06-05T04:47:23;10.20;1.00
2463;DHT22;1243;54.298;10.172;2023-06-05T04:49:49;10.30;1.00
2463;DHT22;1243;54.298;10.172;2023-06-05T04:52:17;10.40;1.00
2463;DHT22;1243;54.298;10.172;2023-06-05T04:54:43;10.40;1.00
2463;DHT22;1243;54.298;10.172;2023-06-05T04:57:09;10.50;1.00
2463;DHT22;1243;54.298;10.172;2023-06-05T04:59:36;10.60;1.00
2463;DHT22;1243;54.298;10.172;2023-06-05T05:02:02;10.70;1.00
2463;DHT22;1243;54.298;10.172;2023-06-05T05:04:28;10.80;1.00
2463;DHT22;1243;54.298;10.172;2023-06-05T05:06:55;10.80;1.00
2463;DHT22;1243;54.298;10.172;2023-06-05T05:09:29;10.90;1.00
2463;DHT22;1243;54.298;10.172;2023-06-05T05:11:57;11.10;1.00
2463;DHT22;1243;54.298;10.172;2023-06-05T05:14:24;11.20;1.00
2463;DHT22;1243;54.298;10.172;2023-06-05T05:16:51;11.30;1.00
2463;DHT22;1243;54.298;10.172;2023-06-05T05:19:17;11.30;1.00
2463;DHT22;1243;54.298;10.172;2023-06-05T05:21:42;11.40;1.00
2463;DHT22;1243;54.298;10.172;2023-06-05T05:24:08;11.60;1.00
2463;DHT22;1243;54.298;10.172;2023-06-05T05:26:34;11.70;3.70
2463;DHT22;1243;54.298;10.172;2023-06-05T05:29:00;11.70;11.00
2463;DHT22;1243;54.298;10.172;2023-06-05T05:31:26;11.80;14.70
2463;DHT22;1243;54.298;10.172;2023-06-05T05:33:53;11.80;21.00
2463;DHT22;1243;54.298;10.172;2023-06-05T05:36:20;11.90;28.80
2463;DHT22;1243;54.298;10.172;2023-06-05T05:38:46;12.00;43.60
2463;DHT22;1243;54.298;10.172;2023-06-05T05:41:11;12.10;57.70
2463;DHT22;1243;54.298;10.172;2023-06-05T05:43:37;12.10;63.40
2463;DHT22;1243;54.298;10.172;2023-06-05T05:46:03;12.30;69.10
2463;DHT22;1243;54.298;10.172;2023-06-05T05:48:28;12.30;70.00
2463;DHT22;1243;54.298;10.172;2023-06-05T05:50:54;12.40;71.70
2463;DHT22;1243;54.298;10.172;2023-06-05T05:53:20;12.40;61.10
2463;DHT22;1243;54.298;10.172;2023-06-05T05:55:46;12.50;55.70
2463;DHT22;1243;54.298;10.172;2023-06-05T05:58:12;12.50;49.40
2463;DHT22;1243;54.298;10.172;2023-06-05T06:00:37;12.60;50.40
2463;DHT22;1243;54.298;10.172;2023-06-05T06:03:03;12.60;44.20
2463;DHT22;1243;54.298;10.172;2023-06-05T06:05:29;12.70;42.70
2463;DHT22;1243;54.298;10.172;2023-06-05T06:07:55;12.80;44.50
2463;DHT22;1243;54.298;10.172;2023-06-05T06:10:21;12.90;42.20
2463;DHT22;1243;54.298;10.172;2023-06-05T06:12:47;12.90;37.80
2463;DHT22;1243;54.298;10.172;2023-06-05T06:15:13;12.90;34.50
2463;DHT22;1243;54.298;10.172;2023-06-05T06:17:39;13.00;35.20
2463;DHT22;1243;54.298;10.172;2023-06-05T06:20:06;13.10;30.30
2463;DHT22;1243;54.298;10.172;2023-06-05T06:22:34;13.20;33.80
2463;DHT22;1243;54.298;10.172;2023-06-05T06:25:00;13.30;34.70
2463;DHT22;1243;54.298;10.172;2023-06-05T06:27:26;13.40;28.90
2463;DHT22;1243;54.298;10.172;2023-06-05T06:29:52;13.40;22.60
2463;DHT22;1243;54.298;10.172;2023-06-05T06:32:19;13.40;11.70
2463;DHT22;1243;54.298;10.172;2023-06-05T06:34:47;13.50;6.50
2463;DHT22;1243;54.298;10.172;2023-06-05T06:37:13;13.60;6.80
2463;DHT22;1243;54.298;10.172;2023-06-05T06:39:43;13.70;4.60
2463;DHT22;1243;54.298;10.172;2023-06-05T06:42:10;13.80;2.30
2463;DHT22;1243;54.298;10.172;2023-06-05T06:44:36;13.90;1.00
2463;DHT22;1243;54.298;10.172;2023-06-05T06:47:03;13.90;1.00
2463;DHT22;1243;54.298;10.172;2023-06-05T06:49:28;14.00;1.00
2463;DHT22;1243;54.298;10.172;2023-06-05T06:51:54;14.00;1.00
2463;DHT22;1243;54.298;10.172;2023-06-05T06:54:20;14.10;1.00
2463;DHT22;1243;54.298;10.172;2023-06-05T06:56:47;14.20;1.00
2463;DHT22;1243;54.298;10.172;2023-06-05T06:59:13;14.20;1.00
2463;DHT22;1243;54.298;10.172;2023-06-05T07:01:44;14.30;1.00
2463;DHT22;1243;54.298;10.172;2023-06-05T07:04:16;14.40;1.00
2463;DHT22;1243;54.298;10.172;2023-06-05T07:06:45;14.40;1.00
2463;DHT22;1243;54.298;10.172;2023-06-05T07:09:12;14.50;1.00
2463;DHT22;1243;54.298;10.172;2023-06-05T07:11:38;14.60;1.00
2463;DHT22;1243;54.298;10.172;2023-06-05T07:14:04;14.70;1.00
2463;DHT22;1243;54.298;10.172;2023-06-05T07:16:31;14.80;1.00
2463;DHT22;1243;54.298;10.172;2023-06-05T07:18:57;14.80;1.00
2463;DHT22;1243;54.298;10.172;2023-06-05T07:21:22;14.90;1.00
2463;DHT22;1243;54.298;10.172;2023-06-05T07:23:49;15.00;1.00
2463;DHT22;1243;54.298;10.172;2023-06-05T07:26:17;15.00;1.00
2463;DHT22;1243;54.298;10.172;2023-06-05T07:28:43;15.00;1.00
2463;DHT22;1243;54.298;10.172;2023-06-05T07:31:09;15.10;1.00
2463;DHT22;1243;54.298;10.172;2023-06-05T07:33:35;15.20;1.00
2463;DHT22;1243;54.298;10.172;2023-06-05T07:36:01;15.30;1.00
2463;DHT22;1243;54.298;10.172;2023-06-05T07:38:27;15.40;1.00
2463;DHT22;1243;54.298;10.172;2023-06-05T07:40:55;15.50;1.00
2463;DHT22;1243;54.298;10.172;2023-06-05T07:43:24;15.60;1.00
2463;DHT22;1243;54.298;10.172;2023-06-05T07:45:50;15.70;1.00
2463;DHT22;1243;54.298;10.172;2023-06-05T07:48:15;15.80;1.00
2463;DHT22;1243;54.298;10.172;2023-06-05T07:50:41;15.90;1.00
2463;DHT22;1243;54.298;10.172;2023-06-05T07:53:07;16.00;1.00
2463;DHT22;1243;54.298;10.172;2023-06-05T07:55:32;16.10;1.00
2463;DHT22;1243;54.298;10.172;2023-06-05T07:57:58;16.20;1.00
2463;DHT22;1243;54.298;10.172;2023-06-05T08:00:26;16.20;1.00
2463;DHT22;1243;54.298;10.172;2023-06-05T08:02:54;16.30;1.00
2463;DHT22;1243;54.298;10.172;2023-06-05T08:05:20;16.40;1.00
2463;DHT22;1243;54.298;10.172;2023-06-05T08:07:46;16.50;1.00
2463;DHT22;1243;54.298;10.172;2023-06-05T08:10:13;16.50;1.00
2463;DHT22;1243;54.298;10.172;2023-06-05T08:12:40;16.60;1.00
2463;DHT22;1243;54.298;10.172;2023-06-05T08:15:06;16.70;1.00
2463;DHT22;1243;54.298;10.172;2023-06-05T08:17:34;16.80;1.00
2463;DHT22;1243;54.298;10.172;2023-06-05T08:20:00;16.90;1.00
2463;DHT22;1243;54.298;10.172;2023-06-05T08:22:26;17.00;1.00
2463;DHT22;1243;54.298;10.172;2023-06-05T08:24:54;17.10;1.00
2463;DHT22;1243;54.298;10.172;2023-06-05T08:27:21;17.20;1.00
2463;DHT22;1243;54.298;10.172;2023-06-05T08:29:47;17.40;1.00
2463;DHT22;1243;54.298;10.172;2023-06-05T08:32:12;17.40;1.00
2463;DHT22;1243;54.298;10.172;2023-06-05T08:34:39;17.40;1.00
2463;DHT22;1243;54.298;10.172;2023-06-05T08:37:05;17.60;1.00
2463;DHT22;1243;54.298;10.172;2023-06-05T08:39:30;17.70;1.00
2463;DHT22;1243;54.298;10.172;2023-06-05T08:41:58;17.80;1.00
2463;DHT22;1243;54.298;10.172;2023-06-05T08:44:29;18.00;1.00
2463;DHT22;1243;54.298;10.172;2023-06-05T08:47:00;18.10;1.00
2463;DHT22;1243;54.298;10.172;2023-06-05T08:49:27;18.20;1.00
2463;DHT22;1243;54.298;10.172;2023-06-05T08:52:10;18.40;1.00
2463;DHT22;1243;54.298;10.172;2023-06-05T08:54:39;18.60;1.00
2463;DHT22;1243;54.298;10.172;2023-06-05T08:57:07;18.80;1.00
2463;DHT22;1243;54.298;10.172;2023-06-05T08:59:33;19.00;1.00
2463;DHT22;1243;54.298;10.172;2023-06-05T09:02:00;19.20;99.90
2463;DHT22;1243;54.298;10.172;2023-06-05T09:04:26;19.30;99.90
2463;DHT22;1243;54.298;10.172;2023-06-05T09:06:58;19.50;99.90
2463;DHT22;1243;54.298;10.172;2023-06-05T09:09:25;19.70;99.90
2463;DHT22;1243;54.298;10.172;2023-06-05T09:12:04;19.90;99.90
2463;DHT22;1243;54.298;10.172;2023-06-05T09:14:31;19.80;99.90
2463;DHT22;1243;54.298;10.172;2023-06-05T09:16:58;20.00;99.90
2463;DHT22;1243;54.298;10.172;2023-06-05T09:19:24;20.40;99.90
2463;DHT22;1243;54.298;10.172;2023-06-05T09:21:54;20.70;99.90
2463;DHT22;1243;54.298;10.172;2023-06-05T09:24:23;20.90;99.90
2463;DHT22;1243;54.298;10.172;2023-06-05T09:29:38;21.30;99.90
2463;DHT22;1243;54.298;10.172;2023-06-05T09:32:04;21.20;99.90
2463;DHT22;1243;54.298;10.172;2023-06-05T09:34:31;21.50;99.90
2463;DHT22;1243;54.298;10.172;2023-06-05T09:36:59;21.70;99.90
2463;DHT22;1243;54.298;10.172;2023-06-05T09:39:26;21.80;99.90
2463;DHT22;1243;54.298;10.172;2023-06-05T09:41:54;22.00;99.90
2463;DHT22;1243;54.298;10.172;2023-06-05T09:44:20;22.10;99.90
2463;DHT22;1243;54.298;10.172;2023-06-05T09:46:54;22.00;99.90
2463;DHT22;1243;54.298;10.172;2023-06-05T09:49:24;22.20;99.90
2463;DHT22;1243;54.298;10.172;2023-06-05T09:51:50;22.50;99.90
2463;DHT22;1243;54.298;10.172;2023-06-05T09:54:17;22.90;99.90
2463;DHT22;1243;54.298;10.172;2023-06-05T09:56:49;23.20;99.90
2463;DHT22;1243;54.298;10.172;2023-06-05T09:59:21;23.70;99.90
2463;DHT22;1243;54.298;10.172;2023-06-05T10:01:50;24.10;99.90
2463;DHT22;1243;54.298;10.172;2023-06-05T10:04:21;24.30;99.90
2463;DHT22;1243;54.298;10.172;2023-06-05T10:06:48;24.60;99.90
2463;DHT22;1243;54.298;10.172;2023-06-05T10:09:15;24.90;99.90
2463;DHT22;1243;54.298;10.172;2023-06-05T10:11:41;25.10;99.90
2463;DHT22;1243;54.298;10.172;2023-06-05T10:14:09;24.90;99.90
2463;DHT22;1243;54.298;10.172;2023-06-05T10:16:35;25.00;99.90
2463;DHT22;1243;54.298;10.172;2023-06-05T10:19:03;25.00;99.90
2463;DHT22;1243;54.298;10.172;2023-06-05T10:21:29;25.30;99.90
2463;DHT22;1243;54.298;10.172;2023-06-05T10:24:07;25.70;99.90
2463;DHT22;1243;54.298;10.172;2023-06-05T10:29:32;24.50;99.90
2463;DHT22;1243;54.298;10.172;2023-06-05T10:32:03;23.90;99.90
2463;DHT22;1243;54.298;10.172;2023-06-05T10:40:53;24.50;99.90
2463;DHT22;1243;54.298;10.172;2023-06-05T10:45:56;25.20;99.90
2463;DHT22;1243;54.298;10.172;2023-06-05T10:49:12;25.00;99.90
2463;DHT22;1243;54.298;10.172;2023-06-05T10:54:12;25.40;99.90
2463;DHT22;1243;54.298;10.172;2023-06-05T10:56:54;25.50;99.90
2463;DHT22;1243;54.298;10.172;2023-06-05T10:59:36;25.10;99.90
2463;DHT22;1243;54.298;10.172;2023-06-05T11:07:27;23.60;99.90
2463;DHT22;1243;54.298;10.172;2023-06-05T11:15:07;21.20;99.90
2463;DHT22;1243;54.298;10.172;2023-06-05T11:20:04;23.10;99.90
2463;DHT22;1243;54.298;10.172;2023-06-05T11:28:04;26.00;99.90
2463;DHT22;1243;54.298;10.172;2023-06-05T11:33:13;26.20;99.90
2463;DHT22;1243;54.298;10.172;2023-06-05T11:35:44;25.80;99.90
2463;DHT22;1243;54.298;10.172;2023-06-05T11:38:17;25.20;99.90
2463;DHT22;1243;54.298;10.172;2023-06-05T11:40:44;24.80;99.90
2463;DHT22;1243;54.298;10.172;2023-06-05T11:43:11;24.50;99.90
2463;DHT22;1243;54.298;10.172;2023-06-05T11:45:39;24.20;99.90
2463;DHT22;1243;54.298;10.172;2023-06-05T11:48:05;23.90;99.90
2463;DHT22;1243;54.298;10.172;2023-06-05T11:50:31;23.60;99.90
2463;DHT22;1243;54.298;10.172;2023-06-05T11:53:07;23.40;99.90
2463;DHT22;1243;54.298;10.172;2023-06-05T11:55:34;23.40;99.90
2463;DHT22;1243;54.298;10.172;2023-06-05T11:58:24;23.70;99.90
2463;DHT22;1243;54.298;10.172;2023-06-05T12:00:50;24.80;99.90
2463;DHT22;1243;54.298;10.172;2023-06-05T12:03:20;25.80;99.90
2463;DHT22;1243;54.298;10.172;2023-06-05T12:05:47;25.90;99.90
2463;DHT22;1243;54.298;10.172;2023-06-05T12:10:53;25.90;99.90
2463;DHT22;1243;54.298;10.172;2023-06-05T12:13:19;25.70;99.90
2463;DHT22;1243;54.298;10.172;2023-06-05T12:16:01;25.60;99.90
2463;DHT22;1243;54.298;10.172;2023-06-05T12:18:33;25.10;99.90
2463;DHT22;1243;54.298;10.172;2023-06-05T12:21:00;24.70;99.90
2463;DHT22;1243;54.298;10.172;2023-06-05T12:23:27;24.60;99.90
2463;DHT22;1243;54.298;10.172;2023-06-05T12:26:00;25.10;99.90
2463;DHT22;1243;54.298;10.172;2023-06-05T12:28:30;26.10;99.90
2463;DHT22;1243;54.298;10.172;2023-06-05T12:30:57;26.60;99.90
2463;DHT22;1243;54.298;10.172;2023-06-05T12:33:23;27.10;99.90
2463;DHT22;1243;54.298;10.172;2023-06-05T12:36:06;27.30;99.90
2463;DHT22;1243;54.298;10.172;2023-06-05T12:38:39;26.90;99.90
2463;DHT22;1243;54.298;10.172;2023-06-05T12:41:06;25.50;99.90
2463;DHT22;1243;54.298;10.172;2023-06-05T12:43:33;24.80;99.90
2463;DHT22;1243;54.298;10.172;2023-06-05T12:45:59;25.10;99.90
2463;DHT22;1243;54.298;10.172;2023-06-05T12:48:24;25.40;99.90
2463;DHT22;1243;54.298;10.172;2023-06-05T12:50:51;25.20;99.90
2463;DHT22;1243;54.298;10.172;2023-06-05T12:53:17;24.70;99.90
2463;DHT22;1243;54.298;10.172;2023-06-05T12:55:43;24.40;99.90
2463;DHT22;1243;54.298;10.172;2023-06-05T12:58:09;24.20;99.90
2463;DHT22;1243;54.298;10.172;2023-06-05T13:00:35;24.50;99.90
2463;DHT22;1243;54.298;10.172;2023-06-05T13:03:01;25.30;99.90
2463;DHT22;1243;54.298;10.172;2023-06-05T13:05:29;26.00;99.90
2463;DHT22;1243;54.298;10.172;2023-06-05T13:07:55;26.60;99.90
2463;DHT22;1243;54.298;10.172;2023-06-05T13:10:21;26.90;99.90
2463;DHT22;1243;54.298;10.172;2023-06-05T13:12:47;27.60;99.90
2463;DHT22;1243;54.298;10.172;2023-06-05T13:15:12;28.60;99.90
2463;DHT22;1243;54.298;10.172;2023-06-05T13:17:38;29.40;99.90
2463;DHT22;1243;54.298;10.172;2023-06-05T13:20:05;29.90;99.90
2463;DHT22;1243;54.298;10.172;2023-06-05T13:22:37;29.60;99.90
2463;DHT22;1243;54.298;10.172;2023-06-05T13:25:04;28.80;99.90
2463;DHT22;1243;54.298;10.172;2023-06-05T13:27:30;28.30;99.90
2463;DHT22;1243;54.298;10.172;2023-06-05T13:29:55;28.00;99.90
2463;DHT22;1243;54.298;10.172;2023-06-05T13:32:21;27.40;99.90
2463;DHT22;1243;54.298;10.172;2023-06-05T13:34:47;27.20;99.90
2463;DHT22;1243;54.298;10.172;2023-06-05T13:37:14;27.10;99.90
2463;DHT22;1243;54.298;10.172;2023-06-05T13:39:40;27.20;99.90
2463;DHT22;1243;54.298;10.172;2023-06-05T13:42:06;27.00;99.90
2463;DHT22;1243;54.298;10.172;2023-06-05T13:44:32;26.50;99.90
2463;DHT22;1243;54.298;10.172;2023-06-05T13:46:57;26.00;99.90
2463;DHT22;1243;54.298;10.172;2023-06-05T13:49:23;25.40;99.90
2463;DHT22;1243;54.298;10.172;2023-06-05T13:51:49;24.80;99.90
2463;DHT22;1243;54.298;10.172;2023-06-05T13:54:14;24.70;99.90
2463;DHT22;1243;54.298;10.172;2023-06-05T13:56:40;24.70;99.90
2463;DHT22;1243;54.298;10.172;2023-06-05T13:59:06;23.90;99.90
2463;DHT22;1243;54.298;10.172;2023-06-05T14:01:31;23.90;99.90
2463;DHT22;1243;54.298;10.172;2023-06-05T14:03:57;24.10;99.90
2463;DHT22;1243;54.298;10.172;2023-06-05T14:06:23;24.20;99.90
2463;DHT22;1243;54.298;10.172;2023-06-05T14:08:48;24.00;99.90
2463;DHT22;1243;54.298;10.172;2023-06-05T14:11:14;23.90;99.90
2463;DHT22;1243;54.298;10.172;2023-06-05T14:13:40;24.00;99.90
2463;DHT22;1243;54.298;10.172;2023-06-05T14:16:07;24.30;99.90
2463;DHT22;1243;54.298;10.172;2023-06-05T14:18:36;24.70;99.90
2463;DHT22;1243;54.298;10.172;2023-06-05T14:21:01;25.00;99.90
2463;DHT22;1243;54.298;10.172;2023-06-05T14:23:27;25.20;99.90
2463;DHT22;1243;54.298;10.172;2023-06-05T14:25:53;24.80;99.90
2463;DHT22;1243;54.298;10.172;2023-06-05T14:28:19;24.60;99.90
2463;DHT22;1243;54.298;10.172;2023-06-05T14:30:48;24.70;99.90
2463;DHT22;1243;54.298;10.172;2023-06-05T14:33:14;24.40;99.90
2463;DHT22;1243;54.298;10.172;2023-06-05T14:35:42;24.40;99.90
2463;DHT22;1243;54.298;10.172;2023-06-05T14:38:08;24.30;99.90
2463;DHT22;1243;54.298;10.172;2023-06-05T14:40:38;24.10;99.90
2463;DHT22;1243;54.298;10.172;2023-06-05T14:43:04;23.90;99.90
2463;DHT22;1243;54.298;10.172;2023-06-05T14:45:31;24.20;99.90
2463;DHT22;1243;54.298;10.172;2023-06-05T14:47:57;24.70;99.90
2463;DHT22;1243;54.298;10.172;2023-06-05T14:50:22;25.00;99.90
2463;DHT22;1243;54.298;10.172;2023-06-05T14:52:48;25.40;99.90
2463;DHT22;1243;54.298;10.172;2023-06-05T14:55:14;25.60;99.90
2463;DHT22;1243;54.298;10.172;2023-06-05T14:57:40;25.40;99.90
2463;DHT22;1243;54.298;10.172;2023-06-05T15:00:06;25.20;99.90
2463;DHT22;1243;54.298;10.172;2023-06-05T15:02:33;25.10;99.90
2463;DHT22;1243;54.298;10.172;2023-06-05T15:04:59;25.10;99.90
2463;DHT22;1243;54.298;10.172;2023-06-05T15:07:30;25.00;99.90
2463;DHT22;1243;54.298;10.172;2023-06-05T15:09:59;24.70;99.90
2463;DHT22;1243;54.298;10.172;2023-06-05T15:12:25;24.50;99.90
2463;DHT22;1243;54.298;10.172;2023-06-05T15:14:51;24.50;99.90
2463;DHT22;1243;54.298;10.172;2023-06-05T15:17:16;24.20;99.90
2463;DHT22;1243;54.298;10.172;2023-06-05T15:19:42;24.00;99.90
2463;DHT22;1243;54.298;10.172;2023-06-05T15:22:10;23.80;99.90
2463;DHT22;1243;54.298;10.172;2023-06-05T15:24:36;23.70;99.90
2463;DHT22;1243;54.298;10.172;2023-06-05T15:27:01;23.60;99.90
2463;DHT22;1243;54.298;10.172;2023-06-05T15:29:28;23.40;99.90
2463;DHT22;1243;54.298;10.172;2023-06-05T15:31:54;23.20;99.90
2463;DHT22;1243;54.298;10.172;2023-06-05T15:34:20;23.00;99.90
2463;DHT22;1243;54.298;10.172;2023-06-05T15:36:45;22.70;99.90
2463;DHT22;1243;54.298;10.172;2023-06-05T15:39:11;22.50;99.90
2463;DHT22;1243;54.298;10.172;2023-06-05T15:41:38;22.40;99.90
2463;DHT22;1243;54.298;10.172;2023-06-05T15:44:04;22.50;99.90
2463;DHT22;1243;54.298;10.172;2023-06-05T15:46:30;22.60;99.90
2463;DHT22;1243;54.298;10.172;2023-06-05T15:48:56;22.90;99.90
2463;DHT22;1243;54.298;10.172;2023-06-05T15:51:25;23.40;99.90
2463;DHT22;1243;54.298;10.172;2023-06-05T15:53:53;23.50;99.90
2463;DHT22;1243;54.298;10.172;2023-06-05T15:56:18;23.40;99.90
2463;DHT22;1243;54.298;10.172;2023-06-05T15:58:44;23.20;99.90
2463;DHT22;1243;54.298;10.172;2023-06-05T16:01:10;23.20;99.90
2463;DHT22;1243;54.298;10.172;2023-06-05T16:03:35;23.20;99.90
2463;DHT22;1243;54.298;10.172;2023-06-05T16:06:01;23.40;99.90
2463;DHT22;1243;54.298;10.172;2023-06-05T16:08:27;23.60;99.90
2463;DHT22;1243;54.298;10.172;2023-06-05T16:10:52;24.20;99.90
2463;DHT22;1243;54.298;10.172;2023-06-05T16:13:18;24.80;99.90
2463;DHT22;1243;54.298;10.172;2023-06-05T16:15:45;24.60;99.90
2463;DHT22;1243;54.298;10.172;2023-06-05T16:18:12;24.30;99.90
2463;DHT22;1243;54.298;10.172;2023-06-05T16:20:38;24.20;99.90
2463;DHT22;1243;54.298;10.172;2023-06-05T16:23:04;24.00;99.90
2463;DHT22;1243;54.298;10.172;2023-06-05T16:25:30;23.40;99.90
2463;DHT22;1243;54.298;10.172;2023-06-05T16:27:56;22.90;99.90
2463;DHT22;1243;54.298;10.172;2023-06-05T16:30:21;22.50;99.90
2463;DHT22;1243;54.298;10.172;2023-06-05T16:32:47;22.10;99.90
2463;DHT22;1243;54.298;10.172;2023-06-05T16:35:13;21.80;99.90
2463;DHT22;1243;54.298;10.172;2023-06-05T16:37:40;21.60;99.90